createdAt,value
2023-03-28T00:01:54.848Z,4.60
2023-03-28T00:04:30.149Z,4.60
2023-03-28T00:07:02.134Z,4.50
2023-03-28T00:12:07.145Z,4.30
2023-03-28T00:14:39.722Z,4.40
2023-03-28T00:22:20.755Z,4.40
2023-03-28T00:27:26.171Z,4.30
2023-03-28T00:29:59.168Z,4.20
2023-03-28T00:32:31.436Z,4.20
2023-03-28T00:35:04.847Z,4.20
2023-03-28T00:37:36.715Z,4.10
2023-03-28T00:40:10.012Z,4.10
2023-03-28T00:42:42.813Z,4.10
2023-03-28T00:45:15.533Z,4.00
2023-03-28T00:50:30.802Z,4.00
2023-03-28T00:53:10.504Z,3.90
2023-03-28T00:55:52.563Z,3.90
2023-03-28T00:58:27.994Z,3.90
2023-03-28T01:01:00.748Z,3.90
2023-03-28T01:03:35.798Z,3.70
2023-03-28T01:06:14.176Z,3.70
2023-03-28T01:08:47.179Z,3.60
2023-03-28T01:11:21.698Z,3.50
2023-03-28T01:13:56.221Z,3.40
2023-03-28T01:16:34.195Z,3.50
2023-03-28T01:19:38.997Z,3.30
2023-03-28T01:22:36.708Z,3.20
2023-03-28T01:25:34.646Z,3.10
2023-03-28T01:28:57.985Z,3.20
2023-03-28T01:31:58.333Z,3.20
2023-03-28T01:38:54.649Z,3.30
2023-03-28T01:41:34.771Z,3.30
2023-03-28T01:44:21.113Z,3.40
2023-03-28T01:47:00.541Z,3.30
2023-03-28T01:50:03.882Z,3.20
2023-03-28T01:53:03.404Z,3.00
2023-03-28T01:55:54.346Z,3.20
2023-03-28T01:58:51.422Z,3.20
2023-03-28T02:01:47.681Z,3.10
2023-03-28T02:04:23.976Z,3.10
2023-03-28T02:07:05.750Z,3.10
2023-03-28T02:09:47.803Z,3.10
2023-03-28T02:12:37.803Z,3.10
2023-03-28T02:15:17.981Z,3.00
2023-03-28T02:18:32.090Z,3.00
2023-03-28T02:21:34.499Z,2.90
2023-03-28T02:24:13.166Z,2.90
2023-03-28T02:29:49.705Z,2.90
2023-03-28T02:32:24.628Z,2.90
2023-03-28T02:34:56.487Z,2.90
2023-03-28T02:38:20.122Z,2.90
2023-03-28T02:41:37.690Z,2.80
2023-03-28T02:44:27.032Z,2.70
2023-03-28T02:47:27.172Z,2.60
2023-03-28T02:50:30.463Z,2.60
2023-03-28T02:53:22.682Z,2.60
2023-03-28T02:56:19.607Z,2.50
2023-03-28T02:59:30.991Z,2.50
2023-03-28T03:02:04.830Z,2.50
2023-03-28T03:09:46.028Z,2.40
2023-03-28T03:12:17.962Z,2.40
2023-03-28T03:14:51.548Z,2.10
2023-03-28T03:17:44.687Z,2.30
2023-03-28T03:20:17.892Z,2.30
2023-03-28T03:22:57.039Z,2.20
2023-03-28T03:25:31.219Z,2.30
2023-03-28T03:28:17.476Z,2.30
2023-03-28T03:30:52.871Z,2.30
2023-03-28T03:33:33.043Z,2.20
2023-03-28T03:36:12.650Z,2.20
2023-03-28T03:38:47.884Z,2.20
2023-03-28T03:41:25.620Z,2.10
2023-03-28T03:43:58.332Z,2.10
2023-03-28T03:46:35.723Z,2.10
2023-03-28T03:49:10.271Z,2.10
2023-03-28T03:51:43.145Z,2.10
2023-03-28T03:54:20.739Z,2.10
2023-03-28T03:56:52.704Z,2.10
2023-03-28T03:59:25.835Z,2.10
2023-03-28T04:02:01.472Z,2.00
2023-03-28T04:04:45.746Z,2.00
2023-03-28T04:07:41.602Z,2.00
2023-03-28T04:10:20.252Z,3.70
2023-03-28T04:15:26.056Z,2.30
2023-03-28T04:21:03.285Z,2.10
2023-03-28T04:23:44.046Z,2.10
2023-03-28T04:26:39.590Z,2.00
2023-03-28T04:29:19.827Z,2.00
2023-03-28T04:32:13.920Z,2.10
2023-03-28T04:35:18.737Z,1.30
2023-03-28T04:37:57.832Z,2.10
2023-03-28T04:40:31.352Z,2.00
2023-03-28T04:45:59.007Z,2.10
2023-03-28T04:48:31.649Z,2.00
2023-03-28T04:51:04.130Z,1.90
2023-03-28T04:53:38.043Z,1.90
2023-03-28T04:56:33.535Z,1.90
2023-03-28T05:01:39.380Z,1.70
2023-03-28T05:04:31.844Z,1.80
2023-03-28T05:07:08.781Z,1.70
2023-03-28T05:09:41.495Z,1.70
2023-03-28T05:12:13.934Z,1.80
2023-03-28T05:15:06.325Z,1.90
2023-03-28T05:17:46.904Z,1.90
2023-03-28T05:20:34.275Z,1.90
2023-03-28T05:25:44.090Z,1.90
2023-03-28T05:28:17.456Z,1.80
2023-03-28T05:30:55.570Z,1.80
2023-03-28T05:33:32.739Z,1.70
2023-03-28T05:36:09.873Z,1.70
2023-03-28T05:38:42.824Z,-0.20
2023-03-28T05:41:22.701Z,1.90
2023-03-28T05:43:54.973Z,1.80
2023-03-28T05:46:42.401Z,1.90
2023-03-28T05:49:15.221Z,1.90
2023-03-28T05:51:48.339Z,1.90
2023-03-28T05:54:20.579Z,1.90
2023-03-28T05:56:53.709Z,1.90
2023-03-28T05:59:30.698Z,1.90
2023-03-28T06:02:04.960Z,2.00
2023-03-28T06:07:14.305Z,2.10
2023-03-28T06:09:46.845Z,2.10
2023-03-28T06:12:22.439Z,2.20
2023-03-28T06:14:57.577Z,2.20
2023-03-28T06:17:35.939Z,2.20
2023-03-28T06:20:11.089Z,2.30
2023-03-28T06:30:22.753Z,2.40
2023-03-28T06:32:58.003Z,2.40
2023-03-28T06:35:30.172Z,2.50
2023-03-28T06:40:36.327Z,2.50
2023-03-28T06:45:51.564Z,2.60
2023-03-28T06:48:30.364Z,2.60
2023-03-28T06:51:22.286Z,2.70
2023-03-28T06:53:56.530Z,2.70
2023-03-28T06:59:07.793Z,2.90
2023-03-28T07:01:41.436Z,3.10
2023-03-28T07:04:20.109Z,3.30
2023-03-28T07:09:49.421Z,3.90
2023-03-28T07:12:21.609Z,6.70
2023-03-28T07:17:50.045Z,5.90
2023-03-28T07:20:23.755Z,6.10
2023-03-28T07:23:00.867Z,6.50
2023-03-28T07:25:35.649Z,6.80
2023-03-28T07:28:08.801Z,6.50
2023-03-28T07:30:42.020Z,6.70
2023-03-28T07:33:38.476Z,6.20
2023-03-28T07:36:21.092Z,5.70
2023-03-28T07:39:03.766Z,5.30
2023-03-28T07:44:31.169Z,5.10
2023-03-28T07:47:03.993Z,6.00
2023-03-28T07:49:37.532Z,7.30
2023-03-28T07:52:10.560Z,8.20
2023-03-28T07:54:42.716Z,8.80
2023-03-28T07:57:15.726Z,8.50
2023-03-28T08:00:13.641Z,9.10
2023-03-28T08:03:04.842Z,10.00
2023-03-28T08:08:12.708Z,11.90
2023-03-28T08:10:52.426Z,12.90
2023-03-28T08:16:05.888Z,12.40
2023-03-28T08:18:38.735Z,11.50
2023-03-28T08:21:13.129Z,12.10
2023-03-28T08:26:38.184Z,12.20
2023-03-28T08:29:10.077Z,12.40
2023-03-28T08:34:19.113Z,13.60
2023-03-28T08:36:51.952Z,13.20
2023-03-28T08:39:30.806Z,13.50
2023-03-28T08:43:11.969Z,14.50
2023-03-28T08:46:05.201Z,12.90
2023-03-28T08:48:45.387Z,13.40
2023-03-28T08:51:44.389Z,13.70
2023-03-28T08:54:37.703Z,13.90
2023-03-28T08:57:20.276Z,14.00
2023-03-28T09:00:17.156Z,13.50
2023-03-28T09:05:27.724Z,13.40
2023-03-28T09:08:43.114Z,13.30
2023-03-28T09:11:49.107Z,13.60
2023-03-28T09:14:28.191Z,15.30
2023-03-28T09:17:35.244Z,16.40
2023-03-28T09:26:40.670Z,13.10
2023-03-28T09:29:25.354Z,12.60
2023-03-28T09:32:04.584Z,12.90
2023-03-28T09:34:53.649Z,12.80
2023-03-28T09:37:40.886Z,13.40
2023-03-28T09:40:23.570Z,13.50
2023-03-28T09:43:36.458Z,13.80
2023-03-28T09:46:32.811Z,14.60
2023-03-28T09:52:34.268Z,14.60
2023-03-28T09:55:20.573Z,14.40
2023-03-28T09:58:11.597Z,14.40
2023-03-28T10:01:27.552Z,14.30
2023-03-28T10:04:38.970Z,15.30
2023-03-28T10:07:31.748Z,14.70
2023-03-28T10:10:25.150Z,15.30
2023-03-28T10:15:53.262Z,14.50
2023-03-28T10:21:48.950Z,13.50
2023-03-28T10:24:26.101Z,13.70
2023-03-28T10:27:25.619Z,13.70
2023-03-28T10:30:27.959Z,13.50
2023-03-28T10:33:27.074Z,13.50
2023-03-28T10:36:34.484Z,13.70
2023-03-28T10:39:29.112Z,13.40
2023-03-28T10:42:22.911Z,13.00
2023-03-28T10:47:42.028Z,12.70
2023-03-28T10:50:47.221Z,13.00
2023-03-28T10:59:11.690Z,12.50
2023-03-28T11:01:56.015Z,13.10
2023-03-28T11:04:50.379Z,13.70
2023-03-28T11:10:30.984Z,13.80
2023-03-28T11:13:45.454Z,14.00
2023-03-28T11:16:32.860Z,14.40
2023-03-28T11:19:44.176Z,13.40
2023-03-28T11:22:35.930Z,13.40
2023-03-28T11:25:36.403Z,13.10
2023-03-28T11:28:49.930Z,13.00
2023-03-28T11:31:59.209Z,12.90
2023-03-28T11:34:41.528Z,14.20
2023-03-28T11:37:23.330Z,13.30
2023-03-28T11:40:07.535Z,13.40
2023-03-28T11:43:07.219Z,13.10
2023-03-28T11:45:52.629Z,12.70
2023-03-28T11:48:41.349Z,12.30
2023-03-28T11:51:38.395Z,12.10
2023-03-28T11:54:17.267Z,12.60
2023-03-28T11:57:13.049Z,13.90
2023-03-28T12:03:31.038Z,13.30
2023-03-28T12:06:25.055Z,13.30
2023-03-28T12:09:24.391Z,13.40
2023-03-28T12:12:13.783Z,13.30
2023-03-28T12:15:17.204Z,13.50
2023-03-28T12:18:25.158Z,13.60
2023-03-28T12:21:23.606Z,13.70
2023-03-28T12:24:14.547Z,13.50
2023-03-28T12:29:59.349Z,13.20
2023-03-28T12:33:04.992Z,13.30
2023-03-28T12:35:56.374Z,13.30
2023-03-28T12:38:43.228Z,13.20
2023-03-28T12:41:39.287Z,13.00
2023-03-28T12:44:29.169Z,12.60
2023-03-28T12:47:16.245Z,12.50
2023-03-28T12:53:11.650Z,13.70
2023-03-28T12:55:51.592Z,13.60
2023-03-28T12:58:34.547Z,13.60
2023-03-28T13:01:36.124Z,14.70
2023-03-28T13:04:37.753Z,14.40
2023-03-28T13:07:41.604Z,13.60
2023-03-28T13:10:46.924Z,13.30
2023-03-28T13:13:28.518Z,13.10
2023-03-28T13:16:23.858Z,13.30
2023-03-28T13:19:18.478Z,13.20
2023-03-28T13:22:00.285Z,13.40
2023-03-28T13:24:36.449Z,13.50
2023-03-28T13:27:14.679Z,13.20
2023-03-28T13:29:51.078Z,13.60
2023-03-28T13:32:24.948Z,13.80
2023-03-28T13:35:02.918Z,13.70
2023-03-28T13:37:43.739Z,13.60
2023-03-28T13:40:48.230Z,13.50
2023-03-28T13:43:51.503Z,12.80
2023-03-28T13:46:39.373Z,12.20
2023-03-28T13:49:18.313Z,12.40
2023-03-28T13:52:22.251Z,12.80
2023-03-28T13:55:02.633Z,13.20
2023-03-28T14:00:18.425Z,12.90
2023-03-28T14:03:00.742Z,12.90
2023-03-28T14:05:34.828Z,13.00
2023-03-28T14:08:15.991Z,13.00
2023-03-28T14:10:52.210Z,13.10
2023-03-28T14:13:28.755Z,13.20
2023-03-28T14:16:01.197Z,13.10
2023-03-28T14:18:42.180Z,13.10
2023-03-28T14:21:16.731Z,13.20
2023-03-28T14:24:04.244Z,12.80
2023-03-28T14:29:17.397Z,12.90
2023-03-28T14:31:50.653Z,13.20
2023-03-28T14:34:27.044Z,13.50
2023-03-28T14:37:15.731Z,13.30
2023-03-28T14:39:47.648Z,13.20
2023-03-28T14:42:22.739Z,13.00
2023-03-28T14:44:55.283Z,13.00
2023-03-28T14:47:34.061Z,13.00
2023-03-28T14:50:08.192Z,13.40
2023-03-28T14:55:24.404Z,13.40
2023-03-28T14:57:59.018Z,12.90
2023-03-28T15:00:38.789Z,12.80
2023-03-28T15:03:16.610Z,13.00
2023-03-28T15:05:52.008Z,13.20
2023-03-28T15:08:39.089Z,12.90
2023-03-28T15:11:20.128Z,12.50
2023-03-28T15:14:04.926Z,12.60
2023-03-28T15:16:41.255Z,12.70
2023-03-28T15:19:22.628Z,12.80
2023-03-28T15:22:10.391Z,12.80
2023-03-28T15:24:44.685Z,12.90
2023-03-28T15:27:32.795Z,12.90
2023-03-28T15:30:13.439Z,12.60
2023-03-28T15:35:29.823Z,12.60
2023-03-28T15:38:18.685Z,12.40
2023-03-28T15:40:59.781Z,12.40
2023-03-28T15:44:27.776Z,14.60
2023-03-28T15:47:09.042Z,10.30
2023-03-28T15:49:41.589Z,12.10
2023-03-28T15:52:19.998Z,12.30
2023-03-28T15:54:53.564Z,12.40
2023-03-28T15:57:29.421Z,12.30
2023-03-28T16:00:01.884Z,12.10
2023-03-28T16:02:44.222Z,12.20
2023-03-28T16:05:16.522Z,12.30
2023-03-28T16:07:54.210Z,12.30
2023-03-28T16:16:30.325Z,12.50
2023-03-28T16:19:25.066Z,12.70
2023-03-28T16:24:34.624Z,12.70
2023-03-28T16:39:54.024Z,12.10
2023-03-28T16:45:00.537Z,12.10
2023-03-28T16:50:08.581Z,12.20
2023-03-28T16:52:41.752Z,12.20
2023-03-28T16:55:17.097Z,12.10
2023-03-28T17:00:24.922Z,12.20
2023-03-28T17:02:57.241Z,12.30
2023-03-28T17:08:02.340Z,12.20
2023-03-28T17:10:38.353Z,12.10
2023-03-28T17:13:13.264Z,12.10
2023-03-28T17:18:18.305Z,12.00
2023-03-28T17:21:03.628Z,11.90
2023-03-28T17:23:38.390Z,11.90
2023-03-28T17:26:12.159Z,11.70
2023-03-28T17:31:20.070Z,11.60
2023-03-28T17:33:52.620Z,11.50
2023-03-28T17:36:27.997Z,11.40
2023-03-28T17:41:32.976Z,11.10
2023-03-28T17:44:06.971Z,11.00
2023-03-28T17:49:11.912Z,10.80
2023-03-28T17:56:49.712Z,10.90
2023-03-28T17:59:22.684Z,10.90
2023-03-28T18:04:28.194Z,10.90
2023-03-28T18:09:52.792Z,10.70
2023-03-28T18:12:25.251Z,10.70
2023-03-28T18:15:00.353Z,10.70
2023-03-28T18:17:33.930Z,10.60
2023-03-28T18:20:08.978Z,10.60
2023-03-28T18:30:20.358Z,12.30
2023-03-28T18:32:52.317Z,11.60
2023-03-28T18:35:25.018Z,11.30
2023-03-28T18:37:57.459Z,11.10
2023-03-28T18:40:29.851Z,10.80
2023-03-28T18:43:02.002Z,10.80
2023-03-28T18:45:38.271Z,10.60
2023-03-28T18:48:10.325Z,10.60
2023-03-28T18:50:42.920Z,9.90
2023-03-28T18:53:15.287Z,10.40
2023-03-28T18:55:47.741Z,10.30
2023-03-28T18:58:19.711Z,10.30
2023-03-28T19:01:00.555Z,10.20
2023-03-28T19:03:40.583Z,10.20
2023-03-28T19:06:15.426Z,10.20
2023-03-28T19:08:47.513Z,10.20
2023-03-28T19:11:20.244Z,10.20
2023-03-28T19:13:52.211Z,10.10
2023-03-28T19:16:24.569Z,10.00
2023-03-28T19:26:35.617Z,10.20
2023-03-28T19:29:07.567Z,10.30
2023-03-28T19:31:39.826Z,10.20
2023-03-28T19:34:19.761Z,10.10
2023-03-28T19:36:52.222Z,10.10
2023-03-28T19:39:24.155Z,10.00
2023-03-28T19:41:56.462Z,10.10
2023-03-28T19:44:28.327Z,10.10
2023-03-28T19:47:00.809Z,10.00
2023-03-28T19:49:32.703Z,10.80
2023-03-28T19:52:05.609Z,10.40
2023-03-28T19:54:37.693Z,10.30
2023-03-28T19:59:42.454Z,10.10
2023-03-28T20:02:14.699Z,10.10
2023-03-28T20:04:46.678Z,10.10
2023-03-28T20:07:21.437Z,10.00
2023-03-28T20:09:53.444Z,10.00
2023-03-28T20:12:25.725Z,10.00
2023-03-28T20:14:57.796Z,9.70
2023-03-28T20:17:30.900Z,9.70
2023-03-28T20:22:38.234Z,9.80
2023-03-28T20:27:43.503Z,9.70
2023-03-28T20:30:15.833Z,9.70
2023-03-28T20:32:49.721Z,9.70
2023-03-28T20:35:21.745Z,9.60
2023-03-28T20:37:54.994Z,9.60
2023-03-28T20:43:02.297Z,9.70
2023-03-28T20:45:35.932Z,9.80
2023-03-28T20:48:10.922Z,9.70
2023-03-28T20:50:46.623Z,9.70
2023-03-28T20:53:18.893Z,9.80
2023-03-28T20:56:03.995Z,9.80
2023-03-28T20:58:39.467Z,9.70
2023-03-28T21:01:13.613Z,10.00
2023-03-28T21:03:54.853Z,9.70
2023-03-28T21:06:31.305Z,10.10
2023-03-28T21:09:25.337Z,10.10
2023-03-28T21:14:30.349Z,10.20
2023-03-28T21:17:07.216Z,10.10
2023-03-28T21:19:39.491Z,10.10
2023-03-28T21:22:11.584Z,10.00
2023-03-28T21:24:43.869Z,10.00
2023-03-28T21:27:18.299Z,9.90
2023-03-28T21:29:50.624Z,9.90
2023-03-28T21:32:22.644Z,9.80
2023-03-28T21:37:29.657Z,9.70
2023-03-28T21:40:01.939Z,9.80
2023-03-28T21:42:34.968Z,10.10
2023-03-28T21:45:07.945Z,10.30
2023-03-28T21:47:42.611Z,10.30
2023-03-28T21:50:16.581Z,10.40
2023-03-28T21:52:48.507Z,10.50
2023-03-28T21:55:20.768Z,10.50
2023-03-28T21:57:52.675Z,10.50
2023-03-28T22:02:58.136Z,10.40
2023-03-28T22:10:37.519Z,10.30
2023-03-28T22:13:09.585Z,10.30
2023-03-28T22:15:42.498Z,10.30
2023-03-28T22:18:15.619Z,10.20
2023-03-28T22:20:53.575Z,10.10
2023-03-28T22:23:25.627Z,10.00
2023-03-28T22:25:58.963Z,10.00
2023-03-28T22:28:31.632Z,10.00
2023-03-28T22:31:04.093Z,10.10
2023-03-28T22:33:36.939Z,10.10
2023-03-28T22:36:10.224Z,10.10
2023-03-28T22:38:42.192Z,10.10
2023-03-28T22:41:14.542Z,10.10
2023-03-28T22:43:47.001Z,10.10
2023-03-28T22:46:20.811Z,10.20
2023-03-28T22:48:58.407Z,10.10
2023-03-28T22:51:30.929Z,10.00
2023-03-28T22:54:03.967Z,10.00
2023-03-28T22:56:35.828Z,9.90
2023-03-28T22:59:07.728Z,9.90
2023-03-28T23:01:40.397Z,9.90
2023-03-28T23:04:12.969Z,9.90
2023-03-28T23:09:18.642Z,10.00
2023-03-28T23:11:51.932Z,9.80
2023-03-28T23:14:23.903Z,9.90
2023-03-28T23:16:58.520Z,9.90
2023-03-28T23:19:31.885Z,10.00
2023-03-28T23:22:04.629Z,10.10
2023-03-28T23:24:36.971Z,10.10
2023-03-28T23:27:09.401Z,10.20
2023-03-28T23:29:41.943Z,10.20
2023-03-28T23:32:14.285Z,10.20
2023-03-28T23:34:46.197Z,10.30
2023-03-28T23:37:18.458Z,10.30
2023-03-28T23:39:50.455Z,10.20
2023-03-28T23:42:24.273Z,10.10
2023-03-28T23:44:56.138Z,10.20
2023-03-28T23:50:00.781Z,10.10
2023-03-28T23:52:33.364Z,10.10
2023-03-28T23:55:07.798Z,10.00
2023-03-28T23:57:40.198Z,10.00
